Terminal Aerodrome Forecast
Issued by NWS

Home | Current Version | Previous Version | Text Only | Print | Product List | Glossary On
Versions: 1 2 3 4 5 6 7 8 9 10 11 12 13 14 15 16 17 18 19 20 21 22 23 24 25 26
000
FTUS44 KMAF 041700
TAFCNM
TAF
KCNM 041721Z 0418/0518 34007KT P6SM OVC080
     FM042100 05014G20KT 5SM -RA BR OVC012
     FM050100 03010KT 1SM -SN BR OVC008
     FM051100 05008KT P6SM BKN012=

USA.gov is the U.S. government's official web portal to all federal, state and local government web resources and services.